createdAt,value
2022-08-23T00:01:31.264Z,3.53
2022-08-23T00:04:04.838Z,3.92
2022-08-23T00:06:32.514Z,4.07
2022-08-23T00:08:59.608Z,3.97
2022-08-23T00:11:38.177Z,4.03
2022-08-23T00:14:15.539Z,3.95
2022-08-23T00:16:42.575Z,4.57
2022-08-23T00:19:11.550Z,4.22
2022-08-23T00:21:38.578Z,3.65
2022-08-23T00:24:07.387Z,3.90
2022-08-23T00:27:01.392Z,4.47
2022-08-23T00:29:55.973Z,3.97
2022-08-23T00:32:29.185Z,3.80
2022-08-23T00:34:56.382Z,3.92
2022-08-23T00:37:23.742Z,4.05
2022-08-23T00:39:51.198Z,4.35
2022-08-23T00:42:42.504Z,4.43
2022-08-23T00:45:29.531Z,4.10
2022-08-23T00:47:57.777Z,4.10
2022-08-23T00:50:48.715Z,4.15
2022-08-23T00:53:21.461Z,4.20
2022-08-23T00:55:52.108Z,4.38
2022-08-23T00:58:21.073Z,4.07
2022-08-23T01:00:51.585Z,4.55
2022-08-23T01:03:20.541Z,3.83
2022-08-23T01:06:07.771Z,3.88
2022-08-23T01:08:36.453Z,4.93
2022-08-23T01:11:28.890Z,4.07
2022-08-23T01:14:03.825Z,4.40
2022-08-23T01:16:37.024Z,4.25
2022-08-23T01:19:13.374Z,4.53
2022-08-23T01:21:53.123Z,4.43
2022-08-23T01:24:59.610Z,4.20
2022-08-23T01:27:12.311Z,3.95
2022-08-23T01:29:40.727Z,4.18
2022-08-23T01:32:09.027Z,4.35
2022-08-23T01:34:36.890Z,4.20
2022-08-23T01:37:11.536Z,3.83
2022-08-23T01:39:38.385Z,4.45
2022-08-23T01:42:07.750Z,4.35
2022-08-23T01:44:34.929Z,4.53
2022-08-23T01:47:01.751Z,4.07
2022-08-23T01:49:28.484Z,4.47
2022-08-23T01:51:55.444Z,4.18
2022-08-23T01:54:22.207Z,3.58
2022-08-23T01:56:49.124Z,3.97
2022-08-23T01:59:16.010Z,3.83
2022-08-23T02:01:43.114Z,4.47
2022-08-23T02:04:09.843Z,4.32
2022-08-23T02:06:36.506Z,4.10
2022-08-23T02:09:17.427Z,4.00
2022-08-23T02:11:46.008Z,4.70
2022-08-23T02:14:15.654Z,4.35
2022-08-23T02:16:58.116Z,4.00
2022-08-23T02:19:31.397Z,3.97
2022-08-23T02:21:58.178Z,4.18
2022-08-23T02:58:57.783Z,4.22
2022-08-23T03:01:31.423Z,4.65
2022-08-23T03:04:00.196Z,4.53
2022-08-23T03:06:27.812Z,4.18
2022-08-23T03:08:56.430Z,4.20
2022-08-23T03:11:24.921Z,4.50
2022-08-23T03:13:53.386Z,4.20
2022-08-23T03:16:20.296Z,4.50
2022-08-23T03:18:47.692Z,4.63
2022-08-23T03:21:14.839Z,4.03
2022-08-23T03:23:41.806Z,4.28
2022-08-23T03:26:11.683Z,5.28
2022-08-23T03:28:39.991Z,4.40
2022-08-23T03:31:07.994Z,4.68
2022-08-23T03:33:35.503Z,4.95
2022-08-23T03:36:04.667Z,4.22
2022-08-23T03:38:31.431Z,4.60
2022-08-23T03:40:58.320Z,4.13
2022-08-23T03:43:24.986Z,4.18
2022-08-23T03:45:52.015Z,3.95
2022-08-23T03:48:18.830Z,4.43
2022-08-23T03:50:45.875Z,4.30
2022-08-23T03:53:12.941Z,4.90
2022-08-23T03:55:42.493Z,4.90
2022-08-23T03:58:10.759Z,4.63
2022-08-23T04:00:37.649Z,4.40
2022-08-23T04:03:04.787Z,4.70
2022-08-23T04:05:31.543Z,4.45
2022-08-23T04:07:58.398Z,4.28
2022-08-23T04:10:25.542Z,4.85
2022-08-23T04:12:54.670Z,4.40
2022-08-23T04:15:21.742Z,4.57
2022-08-23T04:17:48.576Z,4.53
2022-08-23T04:20:15.612Z,4.53
2022-08-23T04:22:42.294Z,4.60
2022-08-23T04:25:16.278Z,4.03
2022-08-23T04:27:58.085Z,4.47
2022-08-23T04:30:25.479Z,4.50
2022-08-23T04:32:52.723Z,4.30
2022-08-23T04:35:19.530Z,4.68
2022-08-23T04:37:46.351Z,4.22
2022-08-23T04:40:31.993Z,4.45
2022-08-23T04:42:58.839Z,4.65
2022-08-23T04:45:27.064Z,4.13
2022-08-23T04:47:54.037Z,4.93
2022-08-23T04:50:21.721Z,4.65
2022-08-23T04:52:48.420Z,5.00
2022-08-23T04:55:15.306Z,5.07
2022-08-23T04:57:42.622Z,4.45
2022-08-23T05:00:14.718Z,4.20
2022-08-23T05:02:41.695Z,4.18
2022-08-23T05:05:11.200Z,4.82
2022-08-23T05:07:42.407Z,4.82
2022-08-23T05:10:13.202Z,4.97
2022-08-23T05:12:40.558Z,4.40
2022-08-23T05:15:09.406Z,4.40
2022-08-23T05:17:36.855Z,3.80
2022-08-23T05:20:08.147Z,5.25
2022-08-23T05:22:36.254Z,4.80
2022-08-23T05:25:03.078Z,4.95
2022-08-23T05:27:30.149Z,4.45
2022-08-23T05:29:56.955Z,4.95
2022-08-23T05:32:24.563Z,4.57
2022-08-23T05:34:51.292Z,4.68
2022-08-23T05:37:18.215Z,5.10
2022-08-23T05:39:45.103Z,4.50
2022-08-23T05:42:14.858Z,5.38
2022-08-23T05:44:42.642Z,5.03
2022-08-23T05:47:12.551Z,4.80
2022-08-23T05:49:42.486Z,4.57
2022-08-23T05:52:12.022Z,4.50
2022-08-23T05:54:39.343Z,4.55
2022-08-23T05:57:06.259Z,5.55
2022-08-23T05:59:32.940Z,4.85
2022-08-23T06:01:59.647Z,4.80
2022-08-23T06:04:26.337Z,5.00
2022-08-23T06:06:56.603Z,4.72
2022-08-23T06:09:24.459Z,4.95
2022-08-23T06:11:51.215Z,4.68
2022-08-23T06:14:17.989Z,4.22
2022-08-23T06:16:47.620Z,4.15
2022-08-23T06:19:15.361Z,4.38
2022-08-23T06:21:43.455Z,4.75
2022-08-23T06:24:10.727Z,5.13
2022-08-23T06:26:41.410Z,5.43
2022-08-23T06:29:15.311Z,4.70
2022-08-23T06:31:48.913Z,5.20
2022-08-23T06:34:18.516Z,5.18
2022-08-23T06:36:49.427Z,6.00
2022-08-23T06:39:17.784Z,5.28
2022-08-23T06:41:45.671Z,5.60
2022-08-23T06:44:12.564Z,5.80
2022-08-23T06:46:40.802Z,6.00
2022-08-23T06:49:08.682Z,5.60
2022-08-23T06:51:43.359Z,6.10
2022-08-23T06:54:13.259Z,6.20
2022-08-23T06:56:41.971Z,6.18
2022-08-23T06:59:09.404Z,5.43
2022-08-23T07:01:46.837Z,5.22
2022-08-23T07:04:16.631Z,6.00
2022-08-23T07:06:44.655Z,5.85
2022-08-23T07:09:12.452Z,5.65
2022-08-23T07:11:39.379Z,5.88
2022-08-23T07:14:10.839Z,6.07
2022-08-23T07:16:45.252Z,4.67
2022-08-23T07:19:12.999Z,6.30
2022-08-23T07:21:48.655Z,5.22
2022-08-23T07:24:17.587Z,4.90
2022-08-23T07:26:46.626Z,5.57
2022-08-23T07:29:14.716Z,4.85
2022-08-23T07:31:47.477Z,5.13
2022-08-23T07:34:15.495Z,5.35
2022-08-23T07:36:44.514Z,5.30
2022-08-23T07:39:12.727Z,4.55
2022-08-23T07:41:39.775Z,4.97
2022-08-23T07:44:09.243Z,5.10
2022-08-23T07:46:38.605Z,4.65
2022-08-23T07:49:06.263Z,4.97
2022-08-23T07:51:39.067Z,5.13
2022-08-23T07:54:09.645Z,5.38
2022-08-23T07:56:37.103Z,5.05
2022-08-23T07:59:06.550Z,5.03
2022-08-23T08:01:33.736Z,4.80
2022-08-23T08:04:02.634Z,4.18
2022-08-23T08:06:32.242Z,4.63
2022-08-23T08:08:59.178Z,4.13
2022-08-23T08:11:34.533Z,5.30
2022-08-23T08:14:07.409Z,4.85
2022-08-23T08:19:07.867Z,5.10
2022-08-23T08:21:35.980Z,5.57
2022-08-23T08:24:07.762Z,5.15
2022-08-23T08:26:35.203Z,5.20
2022-08-23T08:29:02.188Z,5.35
2022-08-23T08:31:28.984Z,5.40
2022-08-23T08:33:55.864Z,5.40
2022-08-23T08:36:36.335Z,5.18
2022-08-23T08:39:06.865Z,5.55
2022-08-23T08:41:44.061Z,4.85
2022-08-23T08:44:37.039Z,5.57
2022-08-23T08:47:13.900Z,5.35
2022-08-23T08:49:49.067Z,5.97
2022-08-23T08:52:32.280Z,6.68
2022-08-23T08:55:10.673Z,5.32
2022-08-23T08:57:44.942Z,5.03
2022-08-23T09:00:15.675Z,5.45
2022-08-23T09:02:42.966Z,4.82
2022-08-23T09:05:14.610Z,5.90
2022-08-23T09:08:09.727Z,5.25
2022-08-23T09:10:58.564Z,4.95
2022-08-23T09:13:48.763Z,5.55
2022-08-23T09:16:30.738Z,5.25
2022-08-23T09:18:57.871Z,4.80
2022-08-23T09:21:25.112Z,5.20
2022-08-23T09:24:00.274Z,4.70
2022-08-23T09:26:30.584Z,5.18
2022-08-23T09:29:20.787Z,4.57
2022-08-23T09:32:02.091Z,4.38
2022-08-23T09:34:36.067Z,3.97
2022-08-23T09:37:18.946Z,4.30
2022-08-23T09:39:54.179Z,4.93
2022-08-23T09:42:29.511Z,3.88
2022-08-23T09:44:57.165Z,3.97
2022-08-23T09:47:46.838Z,3.85
2022-08-23T09:50:26.199Z,3.63
2022-08-23T09:53:04.789Z,4.10
2022-08-23T09:55:45.213Z,3.80
2022-08-23T09:58:32.241Z,3.60
2022-08-23T10:01:19.212Z,3.72
2022-08-23T10:03:46.836Z,3.47
2022-08-23T10:06:31.063Z,2.97
2022-08-23T10:09:03.616Z,3.25
2022-08-23T10:13:57.911Z,2.35
2022-08-23T10:16:50.527Z,2.67
2022-08-23T10:19:23.806Z,2.88
2022-08-23T10:22:11.763Z,2.60
2022-08-23T10:24:52.096Z,2.50
2022-08-23T10:28:05.874Z,2.78
2022-08-23T10:30:59.167Z,2.88
2022-08-23T10:33:54.878Z,2.28
2022-08-23T10:36:34.503Z,2.40
2022-08-23T10:39:24.916Z,2.33
2022-08-23T10:42:06.618Z,2.50
2022-08-23T10:44:35.519Z,2.40
2022-08-23T10:47:22.454Z,2.13
2022-08-23T10:49:52.317Z,2.30
2022-08-23T10:52:40.710Z,2.20
2022-08-23T10:55:34.668Z,1.90
2022-08-23T10:58:05.256Z,2.20
2022-08-23T11:00:34.519Z,2.10
2022-08-23T11:03:43.435Z,1.80
2022-08-23T11:06:35.066Z,1.70
2022-08-23T11:09:09.040Z,1.87
2022-08-23T11:11:46.430Z,2.20
2022-08-23T11:14:34.206Z,1.80
2022-08-23T11:17:08.160Z,1.80
2022-08-23T11:20:00.413Z,1.60
2022-08-23T11:22:55.475Z,1.90
2022-08-23T11:25:22.120Z,1.90
2022-08-23T11:27:49.336Z,1.80
2022-08-23T11:30:35.182Z,2.00
2022-08-23T11:33:33.844Z,1.70
2022-08-23T11:36:09.878Z,2.00
2022-08-23T11:38:48.557Z,1.80
2022-08-23T11:41:27.634Z,2.08
2022-08-23T11:43:57.267Z,1.95
2022-08-23T11:46:27.006Z,1.52
2022-08-23T11:49:24.062Z,1.92
2022-08-23T11:52:06.080Z,2.17
2022-08-23T11:55:06.914Z,2.00
2022-08-23T11:58:11.780Z,1.95
2022-08-23T12:00:57.480Z,2.28
2022-08-23T12:03:33.774Z,1.95
2022-08-23T12:06:06.442Z,1.83
2022-08-23T12:09:01.667Z,1.98
2022-08-23T12:12:02.005Z,1.85
2022-08-23T12:14:31.497Z,1.80
2022-08-23T12:17:12.989Z,1.85
2022-08-23T12:20:18.603Z,1.90
2022-08-23T12:23:14.462Z,1.85
2022-08-23T12:25:43.011Z,1.73
2022-08-23T12:28:43.679Z,1.80
2022-08-23T12:31:32.867Z,1.77
2022-08-23T12:34:18.190Z,1.80
2022-08-23T12:37:20.866Z,1.70
2022-08-23T12:39:55.261Z,1.80
2022-08-23T12:42:29.199Z,1.75
2022-08-23T12:45:17.745Z,1.90
2022-08-23T12:47:56.468Z,1.60
2022-08-23T12:50:43.387Z,1.70
2022-08-23T12:53:16.978Z,1.67
2022-08-23T12:55:48.087Z,1.77
2022-08-23T12:58:17.681Z,1.50
2022-08-23T13:00:54.454Z,1.70
2022-08-23T13:03:30.371Z,1.60
2022-08-23T13:06:11.155Z,1.70
2022-08-23T13:08:44.066Z,1.65
2022-08-23T13:11:12.921Z,2.00
2022-08-23T13:13:42.170Z,3.05
2022-08-23T13:16:36.753Z,1.67
2022-08-23T13:19:22.291Z,1.90
2022-08-23T13:22:08.305Z,1.40
2022-08-23T13:24:39.205Z,1.65
2022-08-23T13:27:22.526Z,1.80
2022-08-23T13:30:13.948Z,1.65
2022-08-23T13:32:47.210Z,1.45
2022-08-23T13:35:25.423Z,1.50
2022-08-23T13:37:55.222Z,1.40
2022-08-23T13:40:32.243Z,1.30
2022-08-23T13:43:01.660Z,1.67
2022-08-23T13:45:35.941Z,1.33
2022-08-23T13:48:14.213Z,1.40
2022-08-23T13:50:41.590Z,1.55
2022-08-23T13:53:23.513Z,1.30
2022-08-23T13:58:43.867Z,1.23
2022-08-23T14:01:19.002Z,1.77
2022-08-23T14:03:46.300Z,1.50
2022-08-23T14:06:13.477Z,1.50
2022-08-23T14:08:40.343Z,1.60
2022-08-23T14:11:07.529Z,1.73
2022-08-23T14:13:36.560Z,1.60
2022-08-23T14:21:43.778Z,1.40
2022-08-23T14:24:10.576Z,1.40
2022-08-23T14:26:37.507Z,2.13
2022-08-23T14:29:05.049Z,1.77
2022-08-23T14:31:32.119Z,1.67
2022-08-23T14:34:02.000Z,1.65
2022-08-23T14:36:29.975Z,1.95
2022-08-23T14:38:56.831Z,1.65
2022-08-23T14:41:27.430Z,1.63
2022-08-23T14:43:54.311Z,1.77
2022-08-23T14:46:23.038Z,2.10
2022-08-23T14:48:50.206Z,1.80
2022-08-23T14:51:28.531Z,1.83
2022-08-23T14:53:55.676Z,1.67
2022-08-23T14:56:22.491Z,1.77
2022-08-23T14:58:50.348Z,1.90
2022-08-23T15:01:19.014Z,1.60
2022-08-23T15:03:46.548Z,1.52
2022-08-23T15:06:14.773Z,1.40
2022-08-23T15:08:42.217Z,1.70
2022-08-23T15:14:00.014Z,1.45
2022-08-23T15:16:27.658Z,1.80
2022-08-23T15:18:55.774Z,1.70
2022-08-23T15:21:23.191Z,1.63
2022-08-23T15:23:49.956Z,1.50
2022-08-23T15:26:23.227Z,1.58
2022-08-23T15:28:50.452Z,1.90
2022-08-23T15:31:19.173Z,1.65
2022-08-23T15:33:46.065Z,2.13
2022-08-23T15:36:15.573Z,1.80
2022-08-23T15:38:44.012Z,1.63
2022-08-23T15:41:11.033Z,1.80
2022-08-23T15:43:39.652Z,1.92
2022-08-23T15:46:17.533Z,2.30
2022-08-23T15:49:10.760Z,2.10
2022-08-23T15:51:37.458Z,1.88
2022-08-23T15:54:04.330Z,1.90
2022-08-23T15:56:37.750Z,1.80
2022-08-23T15:59:05.047Z,2.05
2022-08-23T16:01:33.755Z,1.73
2022-08-23T16:04:02.163Z,1.90
2022-08-23T16:06:32.150Z,2.00
2022-08-23T16:09:01.495Z,1.80
2022-08-23T16:11:29.308Z,1.80
2022-08-23T16:13:56.070Z,1.77
2022-08-23T16:16:30.097Z,1.67
2022-08-23T16:18:58.361Z,1.95
2022-08-23T16:21:26.981Z,1.60
2022-08-23T16:23:55.146Z,1.85
2022-08-23T16:26:32.348Z,2.20
2022-08-23T16:29:04.410Z,1.88
2022-08-23T16:31:38.874Z,1.63
2022-08-23T16:34:11.600Z,1.88
2022-08-23T16:36:40.967Z,1.55
2022-08-23T16:39:08.635Z,1.73
2022-08-23T16:41:35.700Z,1.55
2022-08-23T16:44:02.529Z,2.15
2022-08-23T16:46:29.280Z,1.60
2022-08-23T16:48:56.169Z,1.90
2022-08-23T16:51:23.137Z,1.77
2022-08-23T16:54:02.476Z,1.70
2022-08-23T16:56:34.119Z,1.80
2022-08-23T16:59:01.869Z,1.85
2022-08-23T17:01:29.622Z,2.00
2022-08-23T17:03:56.659Z,1.52
2022-08-23T17:06:23.341Z,1.83
2022-08-23T17:08:50.230Z,2.53
2022-08-23T17:11:19.301Z,2.60
2022-08-23T17:13:47.351Z,2.40
2022-08-23T17:16:14.239Z,2.50
2022-08-23T17:18:41.438Z,2.30
2022-08-23T17:21:09.175Z,2.15
2022-08-23T17:23:40.615Z,2.55
2022-08-23T17:26:08.450Z,2.15
2022-08-23T17:28:35.290Z,2.75
2022-08-23T17:31:02.055Z,3.00
2022-08-23T17:33:28.906Z,2.30
2022-08-23T17:35:55.561Z,2.58
2022-08-23T17:38:22.302Z,2.13
2022-08-23T17:40:49.038Z,2.30
2022-08-23T17:43:15.730Z,1.67
2022-08-23T17:45:50.957Z,1.77
2022-08-23T17:48:19.428Z,1.90
2022-08-23T17:50:47.134Z,2.30
2022-08-23T17:53:15.374Z,1.73
2022-08-23T17:55:43.000Z,1.98
2022-08-23T17:58:10.137Z,2.20
2022-08-23T18:00:39.060Z,2.53
2022-08-23T18:03:06.631Z,2.40
2022-08-23T18:05:34.220Z,2.30
2022-08-23T18:08:01.668Z,2.70
2022-08-23T18:10:29.944Z,2.53
2022-08-23T18:12:57.830Z,2.78
2022-08-23T18:15:25.214Z,2.78
2022-08-23T18:17:52.275Z,2.78
2022-08-23T18:20:26.383Z,2.72
2022-08-23T18:22:54.915Z,3.15
2022-08-23T18:25:21.874Z,2.65
2022-08-23T18:28:06.777Z,2.40
2022-08-23T18:30:35.511Z,2.42
2022-08-23T18:33:02.658Z,2.90
2022-08-23T18:35:31.055Z,2.30
2022-08-23T18:37:58.219Z,2.20
2022-08-23T18:40:28.665Z,2.38
2022-08-23T18:42:55.583Z,2.40
2022-08-23T18:45:22.508Z,2.50
2022-08-23T18:47:49.463Z,2.40
2022-08-23T18:50:17.673Z,2.20
2022-08-23T18:52:44.395Z,2.50
2022-08-23T18:55:11.114Z,2.40
2022-08-23T18:57:38.915Z,2.40
2022-08-23T19:00:09.209Z,2.42
2022-08-23T19:02:35.896Z,2.38
2022-08-23T19:05:03.694Z,2.75
2022-08-23T19:07:30.590Z,2.50
2022-08-23T19:09:57.234Z,2.50
2022-08-23T19:12:24.191Z,2.70
2022-08-23T19:14:50.886Z,2.70
2022-08-23T19:17:17.554Z,2.63
2022-08-23T19:19:44.537Z,2.80
2022-08-23T19:22:12.514Z,3.25
2022-08-23T19:24:39.238Z,2.70
2022-08-23T19:27:06.311Z,3.08
2022-08-23T19:29:33.045Z,2.88
2022-08-23T19:31:59.786Z,3.17
2022-08-23T19:34:26.843Z,2.92
2022-08-23T19:37:00.886Z,2.70
2022-08-23T19:39:29.425Z,3.22
2022-08-23T19:41:56.270Z,3.78
2022-08-23T19:44:23.023Z,3.25
2022-08-23T19:46:50.059Z,3.33
2022-08-23T19:49:17.377Z,3.80
2022-08-23T19:51:44.858Z,3.53
2022-08-23T19:54:12.844Z,2.85
2022-08-23T19:56:57.273Z,3.42
2022-08-23T19:59:28.122Z,3.00
2022-08-23T20:01:55.880Z,3.22
2022-08-23T20:04:24.286Z,3.30
2022-08-23T20:06:51.794Z,3.40
2022-08-23T20:09:20.113Z,3.55
2022-08-23T20:11:46.842Z,3.10
2022-08-23T20:14:13.982Z,2.90
2022-08-23T20:16:41.957Z,2.70
2022-08-23T20:19:10.112Z,2.70
2022-08-23T20:21:37.927Z,2.70
2022-08-23T20:24:05.365Z,2.63
2022-08-23T20:26:42.382Z,2.92
2022-08-23T20:29:11.603Z,2.60
2022-08-23T20:31:47.817Z,2.92
2022-08-23T20:34:14.575Z,2.83
2022-08-23T20:36:41.234Z,2.80
2022-08-23T20:39:08.156Z,2.58
2022-08-23T20:41:37.150Z,2.78
2022-08-23T20:44:05.264Z,3.33
2022-08-23T20:46:32.070Z,3.15
2022-08-23T20:48:59.200Z,3.30
2022-08-23T20:51:28.091Z,3.53
2022-08-23T20:53:55.962Z,3.28
2022-08-23T20:56:23.427Z,3.05
2022-08-23T20:58:50.799Z,3.08
2022-08-23T21:01:18.232Z,3.08
2022-08-23T21:03:45.428Z,3.00
2022-08-23T21:06:15.150Z,3.42
2022-08-23T21:08:43.432Z,3.20
2022-08-23T21:11:11.507Z,3.05
2022-08-23T21:13:42.271Z,2.88
2022-08-23T21:16:09.419Z,3.10
2022-08-23T21:18:36.176Z,3.40
2022-08-23T21:21:03.593Z,3.53
2022-08-23T21:23:30.503Z,3.70
2022-08-23T21:25:58.038Z,3.38
2022-08-23T21:28:26.010Z,2.95
2022-08-23T21:30:53.113Z,2.80
2022-08-23T21:33:21.796Z,3.30
2022-08-23T21:35:49.063Z,3.25
2022-08-23T21:38:15.768Z,3.58
2022-08-23T21:40:42.650Z,3.45
2022-08-23T21:43:09.520Z,3.28
2022-08-23T21:45:36.194Z,3.22
2022-08-23T21:48:08.336Z,3.10
2022-08-23T21:50:35.137Z,2.63
2022-08-23T21:53:02.301Z,2.72
2022-08-23T21:55:34.427Z,3.20
2022-08-23T21:58:03.337Z,3.28
2022-08-23T22:00:30.109Z,3.05
2022-08-23T22:02:56.849Z,3.72
2022-08-23T22:05:24.038Z,3.00
2022-08-23T22:07:51.771Z,3.15
2022-08-23T22:10:18.830Z,3.33
2022-08-23T22:12:45.696Z,3.20
2022-08-23T22:15:12.908Z,3.50
2022-08-23T22:17:39.594Z,3.00
2022-08-23T22:20:08.426Z,4.18
2022-08-23T22:22:35.391Z,3.67
2022-08-23T22:25:02.415Z,3.45
2022-08-23T22:27:29.549Z,3.40
2022-08-23T22:29:56.398Z,3.65
2022-08-23T22:32:23.300Z,3.22
2022-08-23T22:34:50.127Z,3.78
2022-08-23T22:37:16.803Z,3.20
2022-08-23T22:39:43.519Z,3.40
2022-08-23T22:42:12.071Z,3.03
2022-08-23T22:44:38.735Z,2.97
2022-08-23T22:47:05.622Z,3.78
2022-08-23T22:49:32.495Z,3.47
2022-08-23T22:51:59.164Z,3.30
2022-08-23T22:54:25.862Z,3.33
2022-08-23T22:56:53.560Z,2.90
2022-08-23T22:59:22.683Z,3.00
2022-08-23T23:01:57.441Z,3.40
2022-08-23T23:04:26.266Z,3.10
2022-08-23T23:06:54.272Z,3.83
2022-08-23T23:09:21.498Z,3.30
2022-08-23T23:11:48.328Z,3.33
2022-08-23T23:14:16.975Z,3.10
2022-08-23T23:16:45.050Z,2.67
2022-08-23T23:19:30.889Z,2.80
2022-08-23T23:21:58.682Z,2.78
2022-08-23T23:24:31.635Z,3.20
2022-08-23T23:26:59.530Z,3.10
2022-08-23T23:29:27.170Z,3.28
2022-08-23T23:31:55.801Z,3.60
2022-08-23T23:34:23.713Z,3.90
2022-08-23T23:36:55.742Z,3.80
2022-08-23T23:39:22.463Z,3.10
2022-08-23T23:41:49.267Z,3.45
2022-08-23T23:44:16.139Z,3.33
2022-08-23T23:46:50.990Z,3.60
2022-08-23T23:49:17.658Z,3.38
2022-08-23T23:51:52.434Z,3.47
2022-08-23T23:54:19.318Z,3.65
2022-08-23T23:56:46.039Z,3.60
2022-08-23T23:59:13.294Z,3.38
